Time,TemperatureF,DewpointF,PressureIn,WindDirection,WindDirectionDegrees,WindSpeedMPH,WindSpeedGustMPH,Humidity,HourlyPrecipIn,Conditions,Clouds,dailyrainin,SoftwareType,DateUTC
2013-04-09 00:02:00,69.7,64.0,29.60,SSE,163,7.0,13.0,82,0.00,,,0.00,weatherlink.com 1.10,2013-04-09 05:02:00,
2013-04-09 00:17:00,69.6,64.0,29.60,SE,127,12.0,16.0,82,0.00,,,0.00,weatherlink.com 1.10,2013-04-09 05:17:00,
2013-04-09 00:32:00,69.5,63.0,29.60,SE,144,8.0,22.0,81,0.00,,,0.00,weatherlink.com 1.10,2013-04-09 05:32:00,
2013-04-09 00:47:00,69.2,64.0,29.60,SE,130,11.0,16.0,82,0.00,,,0.00,weatherlink.com 1.10,2013-04-09 05:47:00,
2013-04-09 01:02:00,69.1,63.0,29.60,SSE,153,5.0,20.0,82,0.00,,,0.00,weatherlink.com 1.10,2013-04-09 06:02:00,
2013-04-09 01:17:00,69.0,63.0,29.60,SSE,148,9.0,18.0,82,0.00,,,0.00,weatherlink.com 1.10,2013-04-09 06:17:00,
2013-04-09 01:32:00,69.2,63.0,29.59,SSE,160,11.0,19.0,81,0.00,,,0.00,weatherlink.com 1.10,2013-04-09 06:32:00,
2013-04-09 01:47:00,69.5,63.0,29.59,SE,142,7.0,19.0,81,0.00,,,0.00,weatherlink.com 1.10,2013-04-09 06:47:00,
2013-04-09 02:03:00,69.6,63.0,29.59,SE,130,8.0,20.0,80,0.00,,,0.00,weatherlink.com 1.10,2013-04-09 07:03:00,
2013-04-09 02:18:00,69.7,63.0,29.59,SSE,152,11.0,22.0,79,0.00,,,0.00,weatherlink.com 1.10,2013-04-09 07:18:00,
2013-04-09 02:33:00,69.5,63.0,29.58,SSE,150,13.0,23.0,79,0.00,,,0.00,weatherlink.com 1.10,2013-04-09 07:33:00,
2013-04-09 02:48:00,69.3,63.0,29.58,South,170,13.0,18.0,80,0.00,,,0.00,weatherlink.com 1.10,2013-04-09 07:48:00,
2013-04-09 03:03:00,69.1,63.0,29.57,SSE,148,8.0,22.0,80,0.00,,,0.00,weatherlink.com 1.10,2013-04-09 08:03:00,
2013-04-09 03:18:00,68.9,63.0,29.58,SE,144,9.0,16.0,80,0.00,,,0.00,weatherlink.com 1.10,2013-04-09 08:18:00,
2013-04-09 03:33:00,68.8,63.0,29.58,SE,145,13.0,19.0,81,0.00,,,0.00,weatherlink.com 1.10,2013-04-09 08:33:00,
2013-04-09 03:48:00,68.6,63.0,29.57,SSE,157,10.0,22.0,81,0.00,,,0.00,weatherlink.com 1.10,2013-04-09 08:48:00,
2013-04-09 04:03:00,68.4,63.0,29.57,SSE,154,17.0,23.0,82,0.00,,,0.00,weatherlink.com 1.10,2013-04-09 09:03:00,
2013-04-09 04:18:00,68.3,63.0,29.57,SE,140,16.0,21.0,82,0.00,,,0.00,weatherlink.com 1.10,2013-04-09 09:18:00,
2013-04-09 04:33:00,68.2,63.0,29.57,SSE,159,15.0,18.0,83,0.00,,,0.00,weatherlink.com 1.10,2013-04-09 09:33:00,
2013-04-09 04:48:00,68.0,63.0,29.58,SSE,161,13.0,21.0,83,0.00,,,0.00,weatherlink.com 1.10,2013-04-09 09:48:00,
2013-04-09 05:03:00,68.0,63.0,29.57,SSE,167,9.0,19.0,84,0.00,,,0.00,weatherlink.com 1.10,2013-04-09 10:03:00,
2013-04-09 05:18:00,68.1,63.0,29.57,SSE,148,8.0,17.0,84,0.00,,,0.00,weatherlink.com 1.10,2013-04-09 10:18:00,
2013-04-09 05:33:00,68.2,63.0,29.57,SE,142,6.0,19.0,84,0.00,,,0.00,weatherlink.com 1.10,2013-04-09 10:33:00,
2013-04-09 05:48:00,68.2,64.0,29.58,SSE,149,12.0,21.0,85,0.00,,,0.00,weatherlink.com 1.10,2013-04-09 10:48:00,
2013-04-09 06:03:00,68.4,64.0,29.58,SE,146,15.0,20.0,85,0.00,,,0.00,weatherlink.com 1.10,2013-04-09 11:03:00,
2013-04-09 06:18:00,68.5,64.0,29.59,SSE,150,4.0,16.0,85,0.00,,,0.00,weatherlink.com 1.10,2013-04-09 11:18:00,
2013-04-09 06:33:00,68.2,64.0,29.59,SSE,150,0.0,13.0,85,0.00,,,0.00,weatherlink.com 1.10,2013-04-09 11:33:00,
2013-04-09 06:48:00,68.3,64.0,29.59,SSE,162,5.0,16.0,85,0.00,,,0.00,weatherlink.com 1.10,2013-04-09 11:48:00,
2013-04-09 07:03:00,68.6,64.0,29.59,SSE,160,11.0,18.0,84,0.00,,,0.00,weatherlink.com 1.10,2013-04-09 12:03:00,
2013-04-09 07:18:00,69.3,64.0,29.60,SSE,148,9.0,23.0,82,0.00,,,0.00,weatherlink.com 1.10,2013-04-09 12:18:00,
2013-04-09 07:33:00,69.2,64.0,29.60,SSE,155,8.0,16.0,82,0.00,,,0.00,weatherlink.com 1.10,2013-04-09 12:33:00,
2013-04-09 07:48:00,69.3,64.0,29.61,SSE,167,10.0,17.0,82,0.00,,,0.00,weatherlink.com 1.10,2013-04-09 12:48:00,
2013-04-09 08:03:00,69.5,63.0,29.61,SE,142,8.0,16.0,81,0.00,,,0.00,weatherlink.com 1.10,2013-04-09 13:03:00,
2013-04-09 08:18:00,69.8,64.0,29.60,SSE,163,6.0,17.0,81,0.00,,,0.00,weatherlink.com 1.10,2013-04-09 13:18:00,
2013-04-09 08:33:00,70.0,64.0,29.59,SE,143,15.0,20.0,81,0.00,,,0.00,weatherlink.com 1.10,2013-04-09 13:33:00,
2013-04-09 08:48:00,70.2,64.0,29.59,SSE,150,6.0,22.0,80,0.00,,,0.00,weatherlink.com 1.10,2013-04-09 13:48:00,
2013-04-09 09:03:00,70.3,64.0,29.57,SSE,153,9.0,25.0,80,0.00,,,0.00,weatherlink.com 1.10,2013-04-09 14:03:00,
2013-04-09 09:18:00,70.8,64.0,29.57,SE,142,24.0,28.0,78,0.00,,,0.00,weatherlink.com 1.10,2013-04-09 14:18:00,
2013-04-09 09:33:00,70.9,64.0,29.58,SSE,163,15.0,30.0,78,0.00,,,0.00,weatherlink.com 1.10,2013-04-09 14:33:00,
2013-04-09 09:48:00,71.2,64.0,29.58,SSE,156,10.0,26.0,78,0.00,,,0.00,weatherlink.com 1.10,2013-04-09 14:48:00,
2013-04-09 10:03:00,71.4,64.0,29.58,South,179,13.0,25.0,78,0.00,,,0.00,weatherlink.com 1.10,2013-04-09 15:03:00,
2013-04-09 10:18:00,72.3,64.0,29.58,South,188,11.0,31.0,76,0.00,,,0.00,weatherlink.com 1.10,2013-04-09 15:18:00,
2013-04-09 10:33:00,72.6,64.0,29.58,SSE,149,17.0,32.0,75,0.00,,,0.00,weatherlink.com 1.10,2013-04-09 15:33:00,
2013-04-09 10:48:00,72.4,64.0,29.59,SSE,163,22.0,25.0,75,0.00,,,0.00,weatherlink.com 1.10,2013-04-09 15:48:00,
2013-04-09 11:03:00,72.3,64.0,29.61,SSE,163,17.0,25.0,76,0.00,,,0.00,weatherlink.com 1.10,2013-04-09 16:03:00,
2013-04-09 11:18:00,72.4,64.0,29.61,South,175,17.0,26.0,76,0.00,,,0.00,weatherlink.com 1.10,2013-04-09 16:18:00,
2013-04-09 11:33:00,72.5,64.0,29.62,South,183,21.0,21.0,75,0.00,,,0.00,weatherlink.com 1.10,2013-04-09 16:33:00,
2013-04-09 12:03:00,73.5,64.0,29.62,South,181,8.0,18.0,73,0.00,,,0.00,weatherlink.com 1.10,2013-04-09 17:03:00,
2013-04-09 12:18:00,74.2,65.0,29.62,SE,145,17.0,22.0,72,0.00,,,0.00,weatherlink.com 1.10,2013-04-09 17:18:00,
2013-04-09 12:48:00,75.5,65.0,29.61,SSE,159,8.0,21.0,69,0.00,,,0.00,weatherlink.com 1.10,2013-04-09 17:48:00,
2013-04-09 13:04:00,75.4,65.0,29.61,SSE,148,10.0,24.0,70,0.00,,,0.00,weatherlink.com 1.10,2013-04-09 18:04:00,
2013-04-09 13:19:00,75.1,65.0,29.60,SSE,165,20.0,28.0,70,0.00,,,0.00,weatherlink.com 1.10,2013-04-09 18:19:00,
2013-04-09 13:34:00,75.6,65.0,29.59,SE,138,15.0,29.0,70,0.00,,,0.00,weatherlink.com 1.10,2013-04-09 18:34:00,
2013-04-09 14:04:00,75.9,65.0,29.59,SSE,161,19.0,28.0,70,0.00,,,0.00,weatherlink.com 1.10,2013-04-09 19:04:00,
2013-04-09 14:19:00,76.7,65.0,29.59,SE,135,18.0,27.0,68,0.00,,,0.00,weatherlink.com 1.10,2013-04-09 19:19:00,
2013-04-09 14:34:00,76.0,65.0,29.59,SSE,150,19.0,26.0,69,0.00,,,0.00,weatherlink.com 1.10,2013-04-09 19:34:00,
2013-04-09 14:49:00,76.9,66.0,29.59,SE,139,11.0,24.0,69,0.00,,,0.00,weatherlink.com 1.10,2013-04-09 19:49:00,
2013-04-09 15:04:00,76.9,66.0,29.59,SSE,158,13.0,24.0,68,0.00,,,0.00,weatherlink.com 1.10,2013-04-09 20:04:00,
2013-04-09 15:19:00,76.2,66.0,29.59,SSE,160,19.0,24.0,70,0.00,,,0.00,weatherlink.com 1.10,2013-04-09 20:19:00,
2013-04-09 15:49:00,76.7,66.0,29.58,South,182,23.0,38.0,69,0.00,,,0.00,weatherlink.com 1.10,2013-04-09 20:49:00,
2013-04-09 16:04:00,76.4,66.0,29.55,SSE,152,28.0,33.0,71,0.00,,,0.00,weatherlink.com 1.10,2013-04-09 21:04:00,
2013-04-09 16:19:00,75.8,66.0,29.56,SE,144,20.0,32.0,71,0.00,,,0.00,weatherlink.com 1.10,2013-04-09 21:19:00,
2013-04-09 16:34:00,76.4,66.0,29.56,SSE,163,15.0,28.0,71,0.00,,,0.00,weatherlink.com 1.10,2013-04-09 21:34:00,
2013-04-09 16:49:00,77.5,67.0,29.57,SSE,163,14.0,23.0,69,0.00,,,0.00,weatherlink.com 1.10,2013-04-09 21:49:00,
2013-04-09 17:04:00,77.3,66.0,29.57,SSE,150,11.0,31.0,69,0.00,,,0.00,weatherlink.com 1.10,2013-04-09 22:04:00,
2013-04-09 17:19:00,77.6,66.0,29.57,SSE,160,19.0,27.0,67,0.00,,,0.00,weatherlink.com 1.10,2013-04-09 22:19:00,
2013-04-09 17:34:00,77.9,66.0,29.56,South,175,20.0,25.0,67,0.00,,,0.00,weatherlink.com 1.10,2013-04-09 22:34:00,
2013-04-09 17:49:00,78.0,66.0,29.56,SSE,164,15.0,27.0,66,0.00,,,0.00,weatherlink.com 1.10,2013-04-09 22:49:00,
2013-04-09 18:04:00,77.9,66.0,29.55,SSE,150,15.0,29.0,66,0.00,,,0.00,weatherlink.com 1.10,2013-04-09 23:04:00,
2013-04-09 18:19:00,77.1,65.0,29.55,SE,126,23.0,29.0,67,0.00,,,0.00,weatherlink.com 1.10,2013-04-09 23:19:00,
2013-04-09 18:34:00,76.6,65.0,29.56,SE,146,19.0,26.0,68,0.00,,,0.00,weatherlink.com 1.10,2013-04-09 23:34:00,
2013-04-09 18:49:00,76.3,65.0,29.57,SSE,157,17.0,21.0,69,0.00,,,0.00,weatherlink.com 1.10,2013-04-09 23:49:00,
2013-04-09 19:04:00,76.0,65.0,29.57,SSE,147,5.0,20.0,69,0.00,,,0.00,weatherlink.com 1.10,2013-04-10 00:04:00,
2013-04-09 19:19:00,75.7,65.0,29.58,SE,144,0.0,17.0,70,0.00,,,0.00,weatherlink.com 1.10,2013-04-10 00:19:00,
2013-04-09 19:34:00,75.5,65.0,29.57,SE,140,12.0,15.0,70,0.00,,,0.00,weatherlink.com 1.10,2013-04-10 00:34:00,
2013-04-09 19:49:00,75.5,65.0,29.59,SE,144,9.0,14.0,70,0.00,,,0.00,weatherlink.com 1.10,2013-04-10 00:49:00,
2013-04-09 20:04:00,75.3,65.0,29.61,SE,146,0.0,11.0,71,0.00,,,0.00,weatherlink.com 1.10,2013-04-10 01:04:00,
2013-04-09 20:19:00,75.0,65.0,29.61,SE,132,0.0,7.0,71,0.00,,,0.00,weatherlink.com 1.10,2013-04-10 01:19:00,
2013-04-09 20:34:00,74.6,65.0,29.60,East,94,0.0,10.0,71,0.00,,,0.00,weatherlink.com 1.10,2013-04-10 01:34:00,
2013-04-09 20:49:00,74.2,65.0,29.60,East,90,0.0,8.0,73,0.00,,,0.00,weatherlink.com 1.10,2013-04-10 01:49:00,
2013-04-09 21:04:00,73.8,65.0,29.62,SE,130,0.0,7.0,74,0.00,,,0.00,weatherlink.com 1.10,2013-04-10 02:04:00,
2013-04-09 21:19:00,73.5,65.0,29.63,SE,127,0.0,0.0,74,0.00,,,0.00,weatherlink.com 1.10,2013-04-10 02:19:00,
2013-04-09 21:34:00,65.0,51.0,29.67,NW,315,23.0,23.0,60,0.00,,,0.00,weatherlink.com 1.10,2013-04-10 02:34:00,
2013-04-09 21:49:00,54.7,46.0,29.68,NNW,337,12.0,25.0,72,0.00,,,0.00,weatherlink.com 1.10,2013-04-10 02:49:00,
2013-04-09 22:04:00,51.1,43.0,29.72,NNW,332,17.0,26.0,73,0.00,,,0.00,weatherlink.com 1.10,2013-04-10 03:04:00,
2013-04-09 22:19:00,49.2,42.0,29.70,NE,49,15.0,26.0,75,0.00,,,0.00,weatherlink.com 1.10,2013-04-10 03:19:00,
2013-04-09 22:34:00,48.5,41.0,29.71,North,360,18.0,20.0,75,0.00,,,0.00,weatherlink.com 1.10,2013-04-10 03:34:00,
2013-04-09 22:49:00,47.5,40.0,29.72,NNE,13,15.0,23.0,76,0.00,,,0.00,weatherlink.com 1.10,2013-04-10 03:49:00,
2013-04-09 23:04:00,46.9,40.0,29.74,NE,36,10.0,15.0,77,0.00,,,0.00,weatherlink.com 1.10,2013-04-10 04:04:00,
2013-04-09 23:19:00,45.5,39.0,29.73,North,349,15.0,21.0,77,0.00,,,0.00,weatherlink.com 1.10,2013-04-10 04:19:00,
2013-04-09 23:35:00,45.0,38.0,29.75,NNE,15,13.0,23.0,77,0.00,,,0.00,weatherlink.com 1.10,2013-04-10 04:35:00,
2013-04-09 23:50:00,43.8,38.0,29.74,North,5,19.0,23.0,79,0.00,,,0.00,weatherlink.com 1.10,2013-04-10 04:50:00,